createdAt,value
2022-08-11T00:01:08.926Z,101786.53
2022-08-11T00:03:43.021Z,101793.84
2022-08-11T00:06:14.427Z,101790.16
2022-08-11T00:08:42.503Z,101776.47
2022-08-11T00:11:12.471Z,101795.09
2022-08-11T00:13:45.879Z,101771.91
2022-08-11T00:16:21.846Z,101797.56
2022-08-11T00:18:54.409Z,101792.34
2022-08-11T00:21:56.947Z,101779.75
2022-08-11T00:24:10.990Z,101797.03
2022-08-11T00:26:37.970Z,101794.00
2022-08-11T00:29:12.359Z,101756.81
2022-08-11T00:31:44.289Z,101783.03
2022-08-11T00:34:13.111Z,101772.41
2022-08-11T00:36:47.946Z,101784.25
2022-08-11T00:39:16.337Z,101757.75
2022-08-11T00:42:02.791Z,101752.13
2022-08-11T00:44:47.803Z,101779.09
2022-08-11T00:47:28.371Z,101763.53
2022-08-11T00:49:57.943Z,101782.34
2022-08-11T00:52:49.447Z,101770.50
2022-08-11T00:55:55.383Z,101774.53
2022-08-11T00:58:51.044Z,101767.06
2022-08-11T01:01:17.948Z,101774.16
2022-08-11T01:04:00.734Z,101764.66
2022-08-11T01:06:45.739Z,101763.69
2022-08-11T01:09:22.471Z,101761.34
2022-08-11T01:12:20.582Z,101765.63
2022-08-11T01:14:56.269Z,101765.50
2022-08-11T01:18:00.153Z,101763.63
2022-08-11T01:20:48.023Z,101764.81
2022-08-11T01:23:49.695Z,101760.56
2022-08-11T01:26:54.910Z,101766.22
2022-08-11T01:29:58.855Z,101769.91
2022-08-11T01:32:37.389Z,101767.66
2022-08-11T01:35:07.103Z,101772.88
2022-08-11T01:37:55.593Z,101773.75
2022-08-11T01:40:40.886Z,101771.69
2022-08-11T01:43:38.011Z,101769.13
2022-08-11T01:46:18.498Z,101743.78
2022-08-11T01:50:05.180Z,101760.50
2022-08-11T01:52:34.782Z,101758.31
2022-08-11T01:55:26.896Z,101771.09
2022-08-11T01:58:01.149Z,101726.03
2022-08-11T02:00:31.809Z,101734.03
2022-08-11T02:03:07.103Z,101768.78
2022-08-11T02:05:47.238Z,101770.47
2022-08-11T02:08:33.500Z,101774.78
2022-08-11T02:11:31.521Z,101783.13
2022-08-11T02:14:29.772Z,101783.31
2022-08-11T02:17:07.633Z,101782.97
2022-08-11T02:19:52.876Z,101781.00
2022-08-11T02:22:50.059Z,101786.53
2022-08-11T02:25:36.410Z,101776.41
2022-08-11T02:28:29.109Z,101786.81
2022-08-11T02:32:24.151Z,101791.75
2022-08-11T02:34:59.954Z,101773.22
2022-08-11T02:37:33.448Z,101792.78
2022-08-11T02:40:03.486Z,101805.59
2022-08-11T02:42:39.225Z,101797.13
2022-08-11T02:45:14.738Z,101794.63
2022-08-11T02:48:30.983Z,101801.31
2022-08-11T02:51:06.891Z,101794.09
2022-08-11T02:53:58.338Z,101785.19
2022-08-11T02:56:57.736Z,101790.50
2022-08-11T02:59:52.319Z,101788.06
2022-08-11T03:02:33.150Z,101766.63
2022-08-11T03:05:18.188Z,101789.69
2022-08-11T03:08:10.531Z,101755.53
2022-08-11T03:11:09.513Z,101766.78
2022-08-11T03:14:02.293Z,101715.28
2022-08-11T03:16:46.580Z,101785.31
2022-08-11T03:19:26.361Z,101762.13
2022-08-11T03:22:33.313Z,101779.38
2022-08-11T03:25:18.237Z,101768.72
2022-08-11T03:27:54.229Z,101763.66
2022-08-11T03:30:35.201Z,101766.38
2022-08-11T03:33:32.650Z,101771.59
2022-08-11T03:36:20.183Z,101754.47
2022-08-11T03:39:06.206Z,101768.59
2022-08-11T03:42:01.497Z,101754.28
2022-08-11T03:44:50.391Z,101764.47
2022-08-11T03:47:56.788Z,101759.78
2022-08-11T03:50:29.619Z,101759.06
2022-08-11T03:53:02.513Z,101756.78
2022-08-11T03:56:06.509Z,101750.09
2022-08-11T03:58:46.389Z,101750.28
2022-08-11T04:01:44.214Z,101741.81
2022-08-11T04:04:32.253Z,101737.56
2022-08-11T04:07:25.069Z,101728.97
2022-08-11T04:09:57.808Z,101740.97
2022-08-11T04:12:35.892Z,101747.09
2022-08-11T04:15:49.454Z,101740.31
2022-08-11T04:18:26.687Z,101740.84
2022-08-11T04:21:05.460Z,101691.25
2022-08-11T04:24:37.064Z,101727.59
2022-08-11T04:26:56.482Z,101727.78
2022-08-11T04:30:04.988Z,101723.16
2022-08-11T04:32:31.979Z,101729.78
2022-08-11T04:35:08.325Z,101730.06
2022-08-11T04:37:56.297Z,101728.44
2022-08-11T04:40:47.421Z,101726.28
2022-08-11T04:43:32.675Z,101733.94
2022-08-11T04:46:34.150Z,101730.34
2022-08-11T04:49:51.018Z,101702.63
2022-08-11T04:52:48.319Z,101735.09
2022-08-11T04:55:52.137Z,101738.66
2022-08-11T04:59:00.380Z,101738.81
2022-08-11T05:01:55.793Z,101713.81
2022-08-11T05:04:59.363Z,101738.66
2022-08-11T05:08:03.043Z,101742.91
2022-08-11T05:10:44.822Z,101736.34
2022-08-11T05:13:45.690Z,101738.41
2022-08-11T05:16:34.152Z,101720.47
2022-08-11T05:19:37.979Z,101732.25
2022-08-11T05:22:28.969Z,101719.19
2022-08-11T05:26:43.530Z,101726.00
2022-08-11T05:28:39.750Z,101701.50
2022-08-11T05:31:30.487Z,101708.88
2022-08-11T05:34:26.499Z,101717.78
2022-08-11T05:37:26.078Z,101721.00
2022-08-11T05:40:24.578Z,101731.88
2022-08-11T05:43:27.435Z,101714.81
2022-08-11T05:46:21.882Z,101734.59
2022-08-11T05:49:08.330Z,101712.97
2022-08-11T05:52:05.302Z,101702.72
2022-08-11T05:54:54.502Z,101724.00
2022-08-11T05:57:38.594Z,101704.47
2022-08-11T06:00:15.899Z,101712.28
2022-08-11T06:02:57.572Z,101736.84
2022-08-11T06:05:25.719Z,101709.84
2022-08-11T06:07:57.215Z,101712.16
2022-08-11T06:10:33.467Z,101731.00
2022-08-11T06:13:01.451Z,101723.13
2022-08-11T06:15:31.264Z,101719.50
2022-08-11T06:18:01.464Z,101715.72
2022-08-11T06:20:36.607Z,101712.06
2022-08-11T06:23:07.122Z,101714.50
2022-08-11T06:25:36.039Z,101716.84
2022-08-11T06:28:07.898Z,101700.63
2022-08-11T06:30:41.781Z,101711.75
2022-08-11T06:33:12.232Z,101681.50
2022-08-11T06:35:46.211Z,101707.69
2022-08-11T06:38:24.095Z,101700.72
2022-08-11T06:41:18.019Z,101697.38
2022-08-11T06:44:05.067Z,101713.53
2022-08-11T06:46:39.110Z,101713.34
2022-08-11T06:49:28.549Z,101702.41
2022-08-11T06:52:35.264Z,101703.16
2022-08-11T06:55:58.136Z,101678.59
2022-08-11T06:58:23.879Z,101681.66
2022-08-11T07:00:57.020Z,101658.00
2022-08-11T07:03:27.884Z,101714.81
2022-08-11T07:06:04.762Z,101669.53
2022-08-11T07:09:12.773Z,101682.16
2022-08-11T07:12:25.969Z,101699.97
2022-08-11T07:15:15.087Z,101709.13
2022-08-11T07:17:49.907Z,101694.00
2022-08-11T07:20:37.199Z,101710.03
2022-08-11T07:23:28.257Z,101696.91
2022-08-11T07:26:38.319Z,101691.69
2022-08-11T07:29:07.524Z,101674.34
2022-08-11T07:31:50.650Z,101698.94
2022-08-11T07:34:20.146Z,101697.53
2022-08-11T07:36:53.724Z,101663.34
2022-08-11T07:39:26.728Z,101666.44
2022-08-11T07:41:57.300Z,101652.44
2022-08-11T07:44:34.364Z,101697.31
2022-08-11T07:47:21.235Z,101638.56
2022-08-11T07:50:09.268Z,101681.28
2022-08-11T07:52:38.471Z,101642.56
2022-08-11T07:55:12.186Z,101639.28
2022-08-11T07:58:15.868Z,101650.72
2022-08-11T08:01:10.177Z,101667.16
2022-08-11T08:04:02.766Z,101674.50
2022-08-11T08:06:50.425Z,101649.44
2022-08-11T08:09:38.707Z,101631.59
2022-08-11T08:12:26.043Z,101638.50
2022-08-11T08:15:13.636Z,101667.25
2022-08-11T08:18:09.744Z,101658.78
2022-08-11T08:20:50.274Z,101671.41
2022-08-11T08:23:33.469Z,101629.16
2022-08-11T08:26:26.381Z,101652.91
2022-08-11T08:28:55.620Z,101604.72
2022-08-11T08:31:23.064Z,101627.19
2022-08-11T08:33:50.311Z,101611.47
2022-08-11T08:36:20.134Z,101595.94
2022-08-11T08:38:56.072Z,101640.16
2022-08-11T08:41:27.859Z,101660.31
2022-08-11T08:44:15.160Z,101608.47
2022-08-11T08:46:48.321Z,101650.38
2022-08-11T08:49:18.559Z,101650.19
2022-08-11T08:52:02.411Z,101625.47
2022-08-11T08:54:42.608Z,101607.75
2022-08-11T08:57:12.148Z,101630.72
2022-08-11T08:59:49.282Z,101588.31
2022-08-11T09:02:34.146Z,101616.81
2022-08-11T09:05:04.660Z,101607.38
2022-08-11T09:07:39.648Z,101631.25
2022-08-11T09:10:09.478Z,101589.63
2022-08-11T09:12:40.257Z,101610.06
2022-08-11T09:15:10.419Z,101610.78
2022-08-11T09:17:41.531Z,101598.69
2022-08-11T09:20:12.729Z,101571.72
2022-08-11T09:23:54.661Z,101630.94
2022-08-11T09:26:16.033Z,101624.84
2022-08-11T09:28:44.093Z,101628.00
2022-08-11T09:31:14.955Z,101613.72
2022-08-11T09:33:43.895Z,101600.38
2022-08-11T09:36:31.625Z,101622.53
2022-08-11T09:39:18.551Z,101549.44
2022-08-11T09:42:23.617Z,101567.56
2022-08-11T09:44:50.784Z,101607.69
2022-08-11T09:47:26.651Z,101599.97
2022-08-11T09:50:00.179Z,101564.38
2022-08-11T09:52:29.057Z,101589.41
2022-08-11T09:54:56.090Z,101569.44
2022-08-11T09:57:46.178Z,101582.38
2022-08-11T10:00:15.162Z,101572.88
2022-08-11T10:02:46.209Z,101588.38
2022-08-11T10:05:38.992Z,101592.50
2022-08-11T10:08:12.336Z,101579.41
2022-08-11T10:10:41.291Z,101553.94
2022-08-11T10:14:30.374Z,101565.41
2022-08-11T10:16:16.100Z,101575.63
2022-08-11T10:18:51.643Z,101561.53
2022-08-11T10:21:39.036Z,101598.41
2022-08-11T10:24:25.842Z,101567.34
2022-08-11T10:26:55.180Z,101575.28
2022-08-11T10:29:49.886Z,101573.19
2022-08-11T10:32:49.369Z,101554.97
2022-08-11T10:35:30.692Z,101564.56
2022-08-11T10:38:06.086Z,101551.56
2022-08-11T10:40:39.096Z,101599.72
2022-08-11T10:43:10.669Z,101604.16
2022-08-11T10:45:58.376Z,101576.03
2022-08-11T10:48:30.504Z,101540.97
2022-08-11T10:51:14.206Z,101577.72
2022-08-11T10:54:05.099Z,101550.38
2022-08-11T10:56:54.599Z,101576.38
2022-08-11T10:59:24.628Z,101547.16
2022-08-11T11:01:53.519Z,101550.38
2022-08-11T11:04:34.159Z,101558.63
2022-08-11T11:07:30.447Z,101583.31
2022-08-11T11:10:09.394Z,101564.72
2022-08-11T11:13:05.290Z,101574.41
2022-08-11T11:15:53.625Z,101539.13
2022-08-11T11:18:25.094Z,101553.75
2022-08-11T11:20:59.396Z,101554.94
2022-08-11T11:23:39.532Z,101547.91
2022-08-11T11:26:27.533Z,101549.81
2022-08-11T11:29:25.117Z,101541.59
2022-08-11T11:32:18.883Z,101536.59
2022-08-11T11:35:13.174Z,101539.16
2022-08-11T11:38:03.588Z,101496.63
2022-08-11T11:40:31.611Z,101524.38
2022-08-11T11:43:00.459Z,101531.00
2022-08-11T11:45:27.439Z,101480.72
2022-08-11T11:47:56.527Z,101504.59
2022-08-11T11:50:26.300Z,101525.88
2022-08-11T11:53:00.985Z,101475.78
2022-08-11T11:55:29.580Z,101491.28
2022-08-11T11:58:18.875Z,101522.69
2022-08-11T12:01:05.909Z,101510.00
2022-08-11T12:03:34.563Z,101494.13
2022-08-11T12:06:02.733Z,101481.41
2022-08-11T12:08:29.794Z,101487.91
2022-08-11T12:11:20.442Z,101496.38
2022-08-11T12:13:51.078Z,101482.16
2022-08-11T12:16:32.826Z,101465.47
2022-08-11T12:19:05.796Z,101491.69
2022-08-11T12:21:34.736Z,101512.06
2022-08-11T12:24:20.953Z,101477.59
2022-08-11T12:27:15.032Z,101495.84
2022-08-11T12:29:35.994Z,101463.13
2022-08-11T12:32:07.597Z,101481.78
2022-08-11T12:34:34.373Z,101456.78
2022-08-11T12:37:13.744Z,101498.19
2022-08-11T12:40:43.782Z,101509.13
2022-08-11T12:43:20.825Z,101511.16
2022-08-11T12:45:54.634Z,101500.03
2022-08-11T12:48:57.856Z,101502.50
2022-08-11T12:52:11.307Z,101509.53
2022-08-11T12:54:51.804Z,101471.72
2022-08-11T12:58:02.183Z,101497.13
2022-08-11T13:00:50.313Z,101480.34
2022-08-11T13:03:39.529Z,101494.34
2022-08-11T13:06:07.543Z,101490.22
2022-08-11T13:08:37.129Z,101497.56
2022-08-11T13:11:23.282Z,101480.03
2022-08-11T13:13:57.065Z,101499.94
2022-08-11T13:16:55.899Z,101501.47
2022-08-11T13:19:23.711Z,101490.94
2022-08-11T13:21:52.526Z,101479.28
2022-08-11T13:24:21.728Z,101478.81
2022-08-11T13:26:50.601Z,101466.97
2022-08-11T13:29:23.415Z,101467.56
2022-08-11T13:31:50.737Z,101513.78
2022-08-11T13:34:19.793Z,101488.53
2022-08-11T13:36:49.315Z,101487.09
2022-08-11T13:39:17.010Z,101489.28
2022-08-11T13:41:45.322Z,101469.56
2022-08-11T13:44:16.325Z,101501.16
2022-08-11T13:46:48.997Z,101475.34
2022-08-11T13:49:21.972Z,101465.72
2022-08-11T13:51:49.644Z,101457.69
2022-08-11T13:54:19.686Z,101451.84
2022-08-11T13:56:49.720Z,101456.88
2022-08-11T13:59:30.845Z,101477.03
2022-08-11T14:02:21.224Z,101476.53
2022-08-11T14:04:53.399Z,101480.41
2022-08-11T14:07:23.083Z,101466.59
2022-08-11T14:09:57.039Z,101483.06
2022-08-11T14:12:49.837Z,101480.25
2022-08-11T14:15:33.145Z,101436.09
2022-08-11T14:18:27.523Z,101473.09
2022-08-11T14:21:24.350Z,101451.03
2022-08-11T14:23:55.379Z,101438.97
2022-08-11T14:26:23.614Z,101465.91
2022-08-11T14:28:55.346Z,101441.25
2022-08-11T14:31:26.988Z,101434.97
2022-08-11T14:34:02.417Z,101450.69
2022-08-11T14:36:34.152Z,101459.66
2022-08-11T14:39:05.936Z,101426.97
2022-08-11T14:42:11.286Z,101422.56
2022-08-11T14:45:00.458Z,101449.84
2022-08-11T14:47:29.679Z,101423.75
2022-08-11T14:50:09.886Z,101425.00
2022-08-11T14:52:44.137Z,101447.78
2022-08-11T14:55:30.993Z,101417.69
2022-08-11T14:57:58.592Z,101409.19
2022-08-11T15:00:26.050Z,101385.28
2022-08-11T15:03:13.697Z,101438.34
2022-08-11T15:06:05.142Z,101437.81
2022-08-11T15:08:56.815Z,101437.31
2022-08-11T15:11:49.874Z,101423.97
2022-08-11T15:14:41.452Z,101432.75
2022-08-11T15:17:09.724Z,101432.19
2022-08-11T15:19:59.447Z,101446.81
2022-08-11T15:22:45.021Z,101435.50
2022-08-11T15:25:12.239Z,101442.06
2022-08-11T15:27:59.512Z,101441.28
2022-08-11T15:30:46.525Z,101398.09
2022-08-11T15:33:34.937Z,101424.75
2022-08-11T15:36:24.471Z,101441.03
2022-08-11T15:39:02.435Z,101453.72
2022-08-11T15:42:00.274Z,101448.78
2022-08-11T15:45:06.074Z,101436.59
2022-08-11T15:47:48.972Z,101464.13
2022-08-11T15:50:20.046Z,101453.00
2022-08-11T15:53:12.505Z,101460.59
2022-08-11T15:55:39.947Z,101458.09
2022-08-11T15:58:28.364Z,101429.94
2022-08-11T16:01:15.327Z,101432.00
2022-08-11T16:04:12.770Z,101481.16
2022-08-11T16:06:54.487Z,101473.53
2022-08-11T16:09:29.699Z,101466.03
2022-08-11T16:12:09.798Z,101502.47
2022-08-11T16:14:59.410Z,101480.88
2022-08-11T16:17:30.666Z,101517.69
2022-08-11T16:19:58.798Z,101486.84
2022-08-11T16:22:38.176Z,101509.88
2022-08-11T16:27:02.603Z,101517.84
2022-08-11T16:28:14.593Z,101524.50
2022-08-11T16:30:44.008Z,101531.88
2022-08-11T16:33:34.072Z,101525.28
2022-08-11T16:36:17.638Z,101498.88
2022-08-11T16:38:45.787Z,101533.34
2022-08-11T16:41:16.156Z,101513.75
2022-08-11T16:44:08.048Z,101537.78
2022-08-11T16:46:54.834Z,101565.94
2022-08-11T16:49:32.790Z,101532.31
2022-08-11T16:52:04.279Z,101523.94
2022-08-11T16:54:35.416Z,101583.72
2022-08-11T16:57:27.628Z,101589.16
2022-08-11T16:59:58.867Z,101552.16
2022-08-11T17:02:50.438Z,101597.84
2022-08-11T17:05:54.292Z,101545.47
2022-08-11T17:08:56.577Z,101585.19
2022-08-11T17:11:48.242Z,101598.69
2022-08-11T17:14:35.074Z,101609.41
2022-08-11T17:17:06.350Z,101613.50
2022-08-11T17:20:41.644Z,101589.19
2022-08-11T17:22:44.956Z,101585.28
2022-08-11T17:25:13.120Z,101561.25
2022-08-11T17:27:41.226Z,101596.25
2022-08-11T17:30:09.713Z,101608.38
2022-08-11T17:33:01.042Z,101572.59
2022-08-11T17:35:38.946Z,101611.31
2022-08-11T17:38:13.022Z,101614.09
2022-08-11T17:41:03.066Z,101608.41
2022-08-11T17:43:49.812Z,101573.41
2022-08-11T17:46:37.052Z,101567.69
2022-08-11T17:49:07.906Z,101600.75
2022-08-11T17:51:54.644Z,101561.59
2022-08-11T17:54:42.182Z,101539.41
2022-08-11T17:57:36.792Z,101640.00
2022-08-11T18:00:07.374Z,101586.41
2022-08-11T18:03:04.931Z,101591.50
2022-08-11T18:05:34.746Z,101543.19
2022-08-11T18:08:29.720Z,101637.06
2022-08-11T18:12:09.866Z,101635.09
2022-08-11T18:14:30.549Z,101624.38
2022-08-11T18:17:16.125Z,101645.53
2022-08-11T18:20:01.719Z,101645.28
2022-08-11T18:22:54.848Z,101655.34
2022-08-11T18:25:45.477Z,101620.28
2022-08-11T18:28:34.291Z,101666.00
2022-08-11T18:31:21.766Z,101662.81
2022-08-11T18:34:12.405Z,101639.91
2022-08-11T18:37:04.222Z,101629.31
2022-08-11T18:39:56.071Z,101674.25
2022-08-11T18:42:43.394Z,101651.34
2022-08-11T18:45:36.428Z,101673.69
2022-08-11T18:48:35.995Z,101656.50
2022-08-11T18:51:31.130Z,101639.03
2022-08-11T18:54:28.253Z,101687.63
2022-08-11T18:57:16.371Z,101684.78
2022-08-11T19:00:04.638Z,101694.66
2022-08-11T19:02:54.226Z,101684.88
2022-08-11T19:06:06.051Z,101696.16
2022-08-11T19:08:49.911Z,101702.16
2022-08-11T19:11:36.669Z,101698.31
2022-08-11T19:14:30.541Z,101698.63
2022-08-11T19:17:44.490Z,101709.63
2022-08-11T19:20:30.353Z,101714.75
2022-08-11T19:23:17.851Z,101716.63
2022-08-11T19:26:07.499Z,101728.69
2022-08-11T19:28:55.688Z,101715.81
2022-08-11T19:31:44.990Z,101720.09
2022-08-11T19:34:34.722Z,101709.84
2022-08-11T19:37:24.734Z,101740.41
2022-08-11T19:40:18.761Z,101750.13
2022-08-11T19:43:11.194Z,101752.91
2022-08-11T19:46:11.063Z,101758.34
2022-08-11T19:48:58.230Z,101756.66
2022-08-11T19:51:43.645Z,101762.53
2022-08-11T19:54:35.298Z,101764.59
2022-08-11T19:57:22.851Z,101745.41
2022-08-11T20:00:10.640Z,101775.66
2022-08-11T20:02:56.236Z,101772.50
2022-08-11T20:05:55.550Z,101754.16
2022-08-11T20:08:47.859Z,101767.22
2022-08-11T20:11:36.707Z,101780.47
2022-08-11T20:14:24.979Z,101800.41
2022-08-11T20:17:12.901Z,101805.91
2022-08-11T20:22:51.928Z,101798.63
2022-08-11T20:25:41.323Z,101793.47
2022-08-11T20:28:30.178Z,101804.28
2022-08-11T20:31:15.354Z,101780.94
2022-08-11T20:34:01.813Z,101812.38
2022-08-11T20:36:54.521Z,101819.81
2022-08-11T20:39:41.346Z,101777.81
2022-08-11T20:42:30.497Z,101772.88
2022-08-11T20:45:23.359Z,101785.69
2022-08-11T20:48:14.552Z,101817.69
2022-08-11T20:51:06.365Z,101823.38
2022-08-11T20:53:56.763Z,101810.94
2022-08-11T20:56:45.997Z,101834.09
2022-08-11T20:59:49.366Z,101838.44
2022-08-11T21:02:40.774Z,101838.09
2022-08-11T21:08:37.169Z,101815.88
2022-08-11T21:11:27.977Z,101824.03
2022-08-11T21:14:14.049Z,101840.66
2022-08-11T21:17:04.478Z,101834.50
2022-08-11T21:20:17.008Z,101832.84
2022-08-11T21:23:36.055Z,101835.69
2022-08-11T21:26:29.520Z,101833.16
2022-08-11T21:29:18.477Z,101834.19
2022-08-11T21:32:05.267Z,101816.78
2022-08-11T21:34:52.398Z,101805.72
2022-08-11T21:37:39.353Z,101834.53
2022-08-11T21:40:28.371Z,101831.81
2022-08-11T21:43:16.034Z,101834.81
2022-08-11T21:46:02.582Z,101832.19
2022-08-11T21:48:48.468Z,101818.94
2022-08-11T21:51:33.666Z,101825.75
2022-08-11T21:54:20.064Z,101832.78
2022-08-11T21:57:06.210Z,101839.75
2022-08-11T21:59:57.347Z,101831.78
2022-08-11T22:02:44.958Z,101837.16
2022-08-11T22:05:39.098Z,101854.41
2022-08-11T22:08:25.068Z,101855.09
2022-08-11T22:11:10.778Z,101837.19
2022-08-11T22:14:06.313Z,101852.94
2022-08-11T22:16:54.958Z,101846.00
2022-08-11T22:19:42.412Z,101866.66
2022-08-11T22:22:31.415Z,101867.94
2022-08-11T22:25:18.799Z,101867.50
2022-08-11T22:28:05.926Z,101857.22
2022-08-11T22:30:51.941Z,101878.66
2022-08-11T22:33:41.442Z,101866.38
2022-08-11T22:36:46.034Z,101881.63
2022-08-11T22:39:35.184Z,101877.19
2022-08-11T22:42:23.999Z,101886.09
2022-08-11T22:45:18.399Z,101891.47
2022-08-11T22:48:06.541Z,101879.41
2022-08-11T22:50:53.928Z,101883.41
2022-08-11T22:53:57.716Z,101857.94
2022-08-11T22:56:46.399Z,101866.84
2022-08-11T22:59:33.662Z,101878.78
2022-08-11T23:02:19.946Z,101881.59
2022-08-11T23:05:07.415Z,101893.09
2022-08-11T23:08:00.104Z,101888.97
2022-08-11T23:10:46.067Z,101898.06
2022-08-11T23:13:32.284Z,101898.34
2022-08-11T23:16:17.971Z,101895.00
2022-08-11T23:19:04.510Z,101891.38
2022-08-11T23:21:50.880Z,101894.78
2022-08-11T23:24:38.127Z,101900.69
2022-08-11T23:27:25.342Z,101892.22
2022-08-11T23:30:14.666Z,101882.88
2022-08-11T23:33:05.814Z,101898.47
2022-08-11T23:35:56.460Z,101885.16
2022-08-11T23:38:44.559Z,101895.28
2022-08-11T23:41:32.848Z,101898.53
2022-08-11T23:44:24.035Z,101899.72
2022-08-11T23:47:13.208Z,101895.13
2022-08-11T23:49:58.739Z,101907.19
2022-08-11T23:52:46.270Z,101896.03
2022-08-11T23:55:31.631Z,101894.28
2022-08-11T23:58:17.026Z,101899.38
